createdAt,value
2019-05-09T00:01:04.002Z,6.72
2019-05-09T00:03:33.609Z,6.69
2019-05-09T00:06:04.606Z,6.60
2019-05-09T00:08:33.656Z,6.56
2019-05-09T00:11:03.682Z,6.44
2019-05-09T00:13:34.100Z,6.31
2019-05-09T00:16:03.806Z,6.24
2019-05-09T00:18:33.717Z,6.20
2019-05-09T00:21:13.338Z,6.20
2019-05-09T00:23:43.734Z,6.21
2019-05-09T00:26:13.518Z,6.17
2019-05-09T00:28:46.103Z,6.12
2019-05-09T00:31:30.013Z,6.12
2019-05-09T00:34:04.202Z,6.12
2019-05-09T00:36:33.483Z,6.13
2019-05-09T00:39:04.123Z,6.23
2019-05-09T00:41:33.470Z,6.22
2019-05-09T00:44:09.235Z,6.23
2019-05-09T00:46:48.876Z,6.15
2019-05-09T00:49:23.425Z,6.09
2019-05-09T00:51:54.057Z,6.03
2019-05-09T00:54:24.041Z,6.04
2019-05-09T00:56:54.028Z,6.10
2019-05-09T00:59:24.141Z,6.10
2019-05-09T01:01:54.313Z,5.99
2019-05-09T01:04:24.235Z,6.01
2019-05-09T01:06:54.119Z,6.06
2019-05-09T01:09:24.149Z,6.12
2019-05-09T01:11:53.788Z,6.04
2019-05-09T01:14:23.608Z,6.08
2019-05-09T01:16:53.604Z,6.07
2019-05-09T01:19:23.440Z,6.05
2019-05-09T01:21:54.212Z,6.08
2019-05-09T01:24:23.713Z,6.07
2019-05-09T01:26:54.241Z,6.01
2019-05-09T01:29:23.570Z,6.19
2019-05-09T01:31:54.940Z,6.12
2019-05-09T01:34:28.136Z,6.20
2019-05-09T01:37:07.624Z,6.07
2019-05-09T01:39:37.814Z,6.07
2019-05-09T01:42:07.170Z,6.02
2019-05-09T01:44:36.516Z,6.04
2019-05-09T01:47:05.990Z,6.02
2019-05-09T01:49:35.267Z,6.10
2019-05-09T01:52:04.475Z,5.99
2019-05-09T01:54:35.991Z,5.96
2019-05-09T01:57:05.159Z,6.00
2019-05-09T01:59:34.400Z,6.10
2019-05-09T02:02:08.266Z,6.04
2019-05-09T02:04:34.798Z,6.03
2019-05-09T02:07:04.435Z,5.99
2019-05-09T02:09:34.382Z,5.97
2019-05-09T02:12:04.239Z,6.15
2019-05-09T02:14:51.601Z,6.14
2019-05-09T02:17:29.695Z,6.13
2019-05-09T02:19:58.861Z,6.06
2019-05-09T02:22:34.719Z,6.03
2019-05-09T02:25:06.125Z,6.10
2019-05-09T02:27:35.261Z,6.17
2019-05-09T02:30:06.052Z,6.23
2019-05-09T02:32:35.744Z,6.22
2019-05-09T02:35:05.850Z,6.31
2019-05-09T02:37:38.541Z,6.32
2019-05-09T02:40:09.693Z,6.31
2019-05-09T02:42:39.691Z,6.31
2019-05-09T02:45:09.898Z,6.45
2019-05-09T02:47:39.090Z,6.54
2019-05-09T02:50:09.801Z,6.55
2019-05-09T02:52:39.761Z,6.65
2019-05-09T02:55:10.740Z,6.77
2019-05-09T02:57:40.109Z,6.81
2019-05-09T03:00:28.919Z,6.85
2019-05-09T03:03:19.879Z,6.88
2019-05-09T03:05:48.862Z,7.00
2019-05-09T03:08:19.418Z,7.02
2019-05-09T03:10:49.241Z,7.07
2019-05-09T03:13:19.207Z,7.00
2019-05-09T03:15:50.249Z,7.00
2019-05-09T03:18:19.399Z,7.02
2019-05-09T03:21:10.283Z,7.07
2019-05-09T03:23:39.463Z,7.05
2019-05-09T03:26:10.341Z,7.10
2019-05-09T03:28:49.687Z,6.97
2019-05-09T03:31:20.106Z,6.87
2019-05-09T03:33:50.276Z,6.84
2019-05-09T03:36:19.680Z,6.68
2019-05-09T03:38:48.839Z,6.58
2019-05-09T03:41:18.056Z,6.60
2019-05-09T03:43:48.266Z,6.61
2019-05-09T03:46:48.516Z,6.57
2019-05-09T03:49:18.270Z,6.60
2019-05-09T03:51:48.238Z,6.65
2019-05-09T03:54:18.376Z,6.62
2019-05-09T03:56:52.824Z,6.60
2019-05-09T03:59:22.000Z,6.58
2019-05-09T04:01:51.191Z,6.59
2019-05-09T04:04:20.500Z,6.66
2019-05-09T04:06:49.677Z,6.65
2019-05-09T04:09:18.832Z,6.69
2019-05-09T04:11:48.631Z,6.75
2019-05-09T04:14:21.765Z,6.75
2019-05-09T04:16:51.063Z,6.71
2019-05-09T04:19:20.414Z,6.82
2019-05-09T04:21:49.788Z,6.93
2019-05-09T04:24:19.061Z,6.87
2019-05-09T04:26:57.576Z,7.01
2019-05-09T04:29:28.540Z,7.02
2019-05-09T04:31:58.269Z,6.96
2019-05-09T04:34:27.728Z,7.21
2019-05-09T04:37:03.689Z,7.35
2019-05-09T04:39:33.178Z,7.27
2019-05-09T04:42:05.427Z,7.14
2019-05-09T04:44:42.165Z,7.15
2019-05-09T04:47:11.670Z,6.96
2019-05-09T04:49:45.116Z,6.98
2019-05-09T04:52:12.208Z,6.88
2019-05-09T04:54:41.575Z,6.85
2019-05-09T04:57:10.915Z,6.85
2019-05-09T04:59:40.228Z,6.90
2019-05-09T05:02:34.366Z,6.98
2019-05-09T05:05:03.927Z,7.13
2019-05-09T05:07:33.428Z,7.25
2019-05-09T05:10:02.881Z,7.26
2019-05-09T05:12:32.081Z,7.29
2019-05-09T05:15:01.487Z,7.36
2019-05-09T05:17:30.914Z,7.51
2019-05-09T05:20:01.251Z,7.64
2019-05-09T05:22:38.685Z,7.58
2019-05-09T05:25:09.289Z,7.71
2019-05-09T05:27:39.051Z,7.77
2019-05-09T05:30:09.040Z,7.82
2019-05-09T05:33:00.579Z,7.95
2019-05-09T05:35:37.578Z,8.25
2019-05-09T05:38:08.529Z,8.25
2019-05-09T05:40:45.195Z,8.54
2019-05-09T05:43:09.453Z,9.47
2019-05-09T05:45:47.918Z,10.57
2019-05-09T05:48:21.485Z,10.10
2019-05-09T05:50:50.857Z,9.83
2019-05-09T05:53:20.569Z,8.95
2019-05-09T05:55:52.646Z,8.63
2019-05-09T05:58:21.019Z,8.66
2019-05-09T06:00:50.261Z,8.92
2019-05-09T06:03:19.575Z,9.03
2019-05-09T06:05:51.614Z,9.16
2019-05-09T06:08:19.901Z,8.85
2019-05-09T06:10:49.239Z,9.30
2019-05-09T06:13:18.500Z,9.79
2019-05-09T06:15:48.217Z,9.62
2019-05-09T06:18:18.464Z,9.97
2019-05-09T06:20:48.594Z,9.65
2019-05-09T06:23:18.552Z,9.72
2019-05-09T06:25:48.592Z,9.26
2019-05-09T06:28:18.370Z,9.32
2019-05-09T06:30:47.877Z,9.05
2019-05-09T06:33:18.075Z,8.97
2019-05-09T06:35:48.167Z,9.12
2019-05-09T06:38:18.689Z,8.95
2019-05-09T06:40:48.336Z,8.70
2019-05-09T06:43:19.378Z,8.61
2019-05-09T06:46:08.112Z,8.83
2019-05-09T06:48:37.826Z,8.95
2019-05-09T06:51:07.495Z,9.19
2019-05-09T06:53:38.003Z,9.18
2019-05-09T06:56:07.749Z,9.02
2019-05-09T06:58:38.412Z,9.10
2019-05-09T07:01:14.879Z,9.10
2019-05-09T07:03:44.653Z,9.39
2019-05-09T07:06:24.994Z,9.52
2019-05-09T07:09:13.204Z,9.66
2019-05-09T07:11:42.681Z,9.64
2019-05-09T07:14:38.262Z,10.01
2019-05-09T07:17:08.231Z,11.06
2019-05-09T07:19:38.287Z,12.37
2019-05-09T07:22:35.814Z,14.01
2019-05-09T07:25:12.039Z,12.66
2019-05-09T07:27:41.457Z,11.43
2019-05-09T07:30:25.380Z,11.39
2019-05-09T07:33:01.371Z,10.26
2019-05-09T07:35:30.908Z,10.46
2019-05-09T07:38:00.204Z,10.06
2019-05-09T07:40:30.723Z,10.03
2019-05-09T07:43:00.324Z,10.09
2019-05-09T07:45:29.956Z,10.23
2019-05-09T07:47:59.321Z,10.22
2019-05-09T07:50:28.780Z,9.95
2019-05-09T07:52:58.414Z,10.21
2019-05-09T07:55:27.838Z,10.01
2019-05-09T07:57:59.145Z,10.48
2019-05-09T08:00:33.441Z,10.45
2019-05-09T08:03:03.523Z,10.79
2019-05-09T08:05:32.839Z,11.13
2019-05-09T08:08:02.246Z,10.45
2019-05-09T08:10:33.344Z,10.77
2019-05-09T08:13:02.639Z,10.49
2019-05-09T08:15:31.999Z,10.85
2019-05-09T08:18:01.371Z,10.91
2019-05-09T08:20:30.768Z,11.11
2019-05-09T08:23:02.044Z,11.40
2019-05-09T08:25:31.174Z,10.88
2019-05-09T08:28:00.512Z,10.58
2019-05-09T08:30:35.681Z,10.28
2019-05-09T08:33:00.908Z,10.69
2019-05-09T08:35:30.346Z,10.33
2019-05-09T08:37:59.792Z,10.51
2019-05-09T08:40:29.265Z,10.57
2019-05-09T08:42:59.094Z,10.44
2019-05-09T08:45:31.473Z,10.54
2019-05-09T08:47:59.879Z,10.51
2019-05-09T08:50:38.681Z,10.26
2019-05-09T08:53:08.256Z,10.42
2019-05-09T08:55:38.483Z,10.22
2019-05-09T08:58:08.294Z,10.21
2019-05-09T09:00:39.123Z,10.01
2019-05-09T09:03:08.744Z,10.09
2019-05-09T09:05:38.422Z,10.20
2019-05-09T09:08:08.575Z,10.58
2019-05-09T09:10:38.723Z,10.40
2019-05-09T09:13:09.001Z,10.55
2019-05-09T09:18:09.943Z,10.82
2019-05-09T09:20:39.275Z,11.08
2019-05-09T09:23:09.224Z,11.08
2019-05-09T09:25:39.300Z,10.87
2019-05-09T09:28:09.142Z,10.62
2019-05-09T09:30:39.045Z,11.11
2019-05-09T09:33:13.154Z,10.94
2019-05-09T09:35:39.867Z,10.58
2019-05-09T09:38:09.608Z,10.85
2019-05-09T09:40:38.997Z,10.90
2019-05-09T09:43:09.387Z,10.74
2019-05-09T09:45:38.834Z,10.93
2019-05-09T09:48:09.266Z,10.89
2019-05-09T09:50:38.889Z,11.32
2019-05-09T09:53:09.113Z,11.54
2019-05-09T09:55:38.873Z,11.86
2019-05-09T09:58:08.513Z,12.52
2019-05-09T10:00:48.249Z,12.66
2019-05-09T10:03:18.676Z,12.54
2019-05-09T10:05:48.713Z,12.65
2019-05-09T10:08:18.549Z,12.88
2019-05-09T10:10:48.601Z,12.74
2019-05-09T10:13:18.690Z,12.19
2019-05-09T10:16:13.132Z,11.46
2019-05-09T10:18:46.665Z,11.13
2019-05-09T10:21:22.635Z,11.17
2019-05-09T10:23:51.987Z,10.94
2019-05-09T10:26:21.425Z,11.00
2019-05-09T10:28:50.832Z,10.94
2019-05-09T10:31:20.392Z,11.41
2019-05-09T10:33:49.793Z,11.39
2019-05-09T10:36:19.190Z,11.42
2019-05-09T10:38:48.546Z,11.11
2019-05-09T10:41:18.072Z,11.48
2019-05-09T10:44:08.979Z,11.70
2019-05-09T10:46:53.595Z,11.92
2019-05-09T10:49:18.810Z,11.72
2019-05-09T10:51:48.597Z,11.74
2019-05-09T10:54:18.639Z,12.22
2019-05-09T10:56:48.798Z,12.37
2019-05-09T10:59:18.499Z,12.57
2019-05-09T11:01:49.674Z,13.21
2019-05-09T11:04:19.299Z,13.49
2019-05-09T11:06:48.668Z,13.76
2019-05-09T11:09:18.479Z,14.45
2019-05-09T11:11:48.572Z,14.51
2019-05-09T11:14:32.193Z,14.91
2019-05-09T11:16:59.211Z,14.14
2019-05-09T11:19:20.464Z,14.11
2019-05-09T11:21:49.910Z,13.78
2019-05-09T11:24:19.373Z,14.45
2019-05-09T11:26:48.938Z,14.30
2019-05-09T11:29:18.816Z,14.64
2019-05-09T11:31:48.376Z,14.72
2019-05-09T11:34:18.826Z,14.89
2019-05-09T11:36:49.844Z,14.95
2019-05-09T11:39:35.235Z,14.26
2019-05-09T11:41:50.541Z,14.20
2019-05-09T11:44:20.213Z,14.98
2019-05-09T11:46:49.701Z,15.90
2019-05-09T11:49:19.179Z,16.16
2019-05-09T11:51:48.553Z,16.18
2019-05-09T11:54:19.475Z,14.80
2019-05-09T11:56:49.081Z,14.70
2019-05-09T11:59:19.027Z,14.90
2019-05-09T12:01:48.689Z,14.47
2019-05-09T12:04:18.893Z,14.69
2019-05-09T12:06:49.327Z,15.23
2019-05-09T12:09:18.906Z,14.80
2019-05-09T12:11:48.616Z,14.46
2019-05-09T12:14:17.981Z,15.15
2019-05-09T12:16:48.142Z,14.82
2019-05-09T12:19:18.140Z,14.06
2019-05-09T12:21:48.566Z,14.13
2019-05-09T12:24:18.518Z,13.96
2019-05-09T12:26:48.402Z,13.58
2019-05-09T12:29:19.538Z,14.08
2019-05-09T12:31:49.243Z,13.96
2019-05-09T12:34:19.535Z,14.55
2019-05-09T12:36:49.828Z,14.76
2019-05-09T12:39:19.503Z,14.17
2019-05-09T12:41:48.874Z,14.26
2019-05-09T12:44:18.597Z,14.19
2019-05-09T12:46:48.982Z,13.95
2019-05-09T12:49:19.181Z,13.31
2019-05-09T12:51:48.759Z,12.87
2019-05-09T12:54:19.065Z,12.76
2019-05-09T12:56:48.805Z,12.73
2019-05-09T12:59:18.892Z,12.05
2019-05-09T13:01:49.272Z,12.05
2019-05-09T13:04:19.207Z,12.07
2019-05-09T13:06:49.094Z,12.58
2019-05-09T13:09:18.677Z,12.58
2019-05-09T13:11:48.331Z,12.86
2019-05-09T13:14:19.244Z,12.54
2019-05-09T13:17:08.236Z,12.30
2019-05-09T13:19:40.945Z,12.31
2019-05-09T13:22:10.280Z,11.92
2019-05-09T13:24:39.580Z,12.00
2019-05-09T13:27:08.929Z,11.87
2019-05-09T13:29:38.402Z,12.02
2019-05-09T13:32:08.752Z,11.82
2019-05-09T13:34:38.592Z,11.95
2019-05-09T13:37:09.087Z,12.14
2019-05-09T13:39:39.734Z,12.18
2019-05-09T13:42:09.318Z,12.39
2019-05-09T13:44:41.456Z,12.46
2019-05-09T13:47:10.914Z,12.50
2019-05-09T13:49:40.708Z,12.59
2019-05-09T13:52:10.346Z,13.09
2019-05-09T13:54:39.807Z,13.33
2019-05-09T13:57:09.241Z,14.38
2019-05-09T13:59:38.602Z,15.00
2019-05-09T14:02:08.376Z,16.02
2019-05-09T14:04:39.466Z,16.70
2019-05-09T14:07:08.902Z,17.09
2019-05-09T14:09:38.719Z,18.87
2019-05-09T14:12:09.288Z,19.25
2019-05-09T14:14:39.596Z,16.96
2019-05-09T14:17:13.530Z,16.00
2019-05-09T14:19:45.911Z,16.12
2019-05-09T14:22:11.032Z,16.00
2019-05-09T14:24:40.569Z,16.81
2019-05-09T14:27:09.946Z,16.81
2019-05-09T14:29:39.409Z,17.40
2019-05-09T14:32:08.927Z,17.40
2019-05-09T14:34:42.366Z,17.12
2019-05-09T14:37:09.838Z,15.62
2019-05-09T14:39:54.542Z,15.62
2019-05-09T14:42:10.157Z,15.20
2019-05-09T14:44:39.633Z,15.24
2019-05-09T14:47:08.904Z,15.54
2019-05-09T14:49:43.339Z,15.81
2019-05-09T14:52:09.161Z,15.54
2019-05-09T14:54:39.290Z,15.09
2019-05-09T14:57:09.635Z,14.83
2019-05-09T14:59:39.421Z,14.35
2019-05-09T15:02:09.331Z,13.89
2019-05-09T15:04:38.888Z,14.13
2019-05-09T15:07:08.276Z,14.23
2019-05-09T15:09:37.729Z,13.95
2019-05-09T15:12:07.116Z,13.59
2019-05-09T15:14:38.346Z,13.53
2019-05-09T15:17:08.810Z,13.18
2019-05-09T15:19:38.767Z,13.12
2019-05-09T15:22:08.671Z,12.80
2019-05-09T15:24:38.931Z,12.72
2019-05-09T15:27:08.628Z,12.89
2019-05-09T15:29:39.096Z,12.81
2019-05-09T15:32:12.270Z,12.69
2019-05-09T15:34:39.997Z,12.51
2019-05-09T15:37:09.453Z,12.19
2019-05-09T15:39:38.795Z,12.11
2019-05-09T15:42:08.179Z,11.89
2019-05-09T15:44:37.835Z,11.69
2019-05-09T15:47:14.073Z,11.50
2019-05-09T15:49:43.347Z,11.54
2019-05-09T15:52:12.747Z,11.71
2019-05-09T15:54:42.251Z,12.04
2019-05-09T15:57:11.572Z,12.73
2019-05-09T15:59:40.977Z,13.38
2019-05-09T16:02:10.471Z,13.75
2019-05-09T16:04:40.420Z,14.43
2019-05-09T16:07:10.148Z,14.50
2019-05-09T16:09:39.792Z,14.29
2019-05-09T16:12:09.273Z,13.80
2019-05-09T16:14:38.742Z,13.41
2019-05-09T16:17:08.171Z,13.41
2019-05-09T16:19:37.943Z,13.50
2019-05-09T16:22:08.090Z,13.62
2019-05-09T16:24:38.142Z,14.08
2019-05-09T16:27:08.532Z,13.50
2019-05-09T16:29:38.470Z,13.20
2019-05-09T16:32:08.784Z,12.93
2019-05-09T16:34:38.815Z,13.04
2019-05-09T16:37:08.398Z,13.43
2019-05-09T16:39:38.009Z,13.84
2019-05-09T16:42:07.691Z,13.62
2019-05-09T16:44:37.726Z,13.33
2019-05-09T16:47:08.506Z,13.19
2019-05-09T16:49:38.657Z,12.82
2019-05-09T16:52:08.272Z,12.62
2019-05-09T16:54:40.411Z,12.58
2019-05-09T16:57:09.596Z,12.26
2019-05-09T16:59:38.975Z,12.44
2019-05-09T17:02:18.950Z,12.37
2019-05-09T17:04:39.983Z,12.35
2019-05-09T17:07:09.260Z,12.38
2019-05-09T17:09:42.708Z,12.58
2019-05-09T17:12:12.118Z,12.53
2019-05-09T17:14:41.552Z,12.63
2019-05-09T17:17:10.933Z,12.66
2019-05-09T17:19:40.270Z,12.82
2019-05-09T17:22:15.046Z,12.88
2019-05-09T17:24:48.227Z,12.83
2019-05-09T17:27:18.803Z,12.68
2019-05-09T17:29:48.207Z,12.71
2019-05-09T17:32:18.404Z,12.84
2019-05-09T17:34:48.032Z,12.81
2019-05-09T17:37:17.893Z,12.92
2019-05-09T17:39:47.339Z,12.40
2019-05-09T17:42:18.297Z,12.16
2019-05-09T17:44:48.779Z,11.96
2019-05-09T17:47:18.527Z,11.86
2019-05-09T17:49:48.302Z,11.78
2019-05-09T17:52:18.377Z,11.53
2019-05-09T17:54:48.656Z,11.41
2019-05-09T17:57:18.975Z,11.22
2019-05-09T17:59:49.001Z,11.09
2019-05-09T18:02:18.660Z,11.03
2019-05-09T18:04:48.285Z,11.02
2019-05-09T18:07:18.176Z,11.09
2019-05-09T18:09:48.409Z,11.03
2019-05-09T18:12:18.965Z,10.95
2019-05-09T18:14:48.568Z,10.89
2019-05-09T18:17:18.354Z,10.84
2019-05-09T18:19:47.690Z,10.85
2019-05-09T18:22:18.600Z,10.78
2019-05-09T18:24:48.415Z,10.77
2019-05-09T18:27:18.288Z,10.78
2019-05-09T18:29:47.620Z,10.77
2019-05-09T18:32:42.251Z,10.78
2019-05-09T18:35:17.302Z,10.82
2019-05-09T18:37:48.105Z,10.73
2019-05-09T18:40:18.365Z,10.71
2019-05-09T18:42:48.059Z,10.80
2019-05-09T18:45:18.688Z,10.81
2019-05-09T18:47:48.347Z,10.86
2019-05-09T18:50:18.095Z,10.94
2019-05-09T18:52:47.420Z,10.89
2019-05-09T18:55:17.513Z,10.93
2019-05-09T18:57:46.933Z,10.81
2019-05-09T19:00:20.313Z,10.75
2019-05-09T19:02:49.932Z,10.56
2019-05-09T19:05:20.100Z,10.46
2019-05-09T19:07:52.699Z,10.33
2019-05-09T19:10:22.297Z,10.19
2019-05-09T19:12:51.750Z,10.09
2019-05-09T19:15:36.574Z,9.96
2019-05-09T19:18:12.609Z,9.91
2019-05-09T19:20:47.156Z,9.72
2019-05-09T19:23:16.680Z,9.73
2019-05-09T19:25:46.108Z,9.66
2019-05-09T19:28:15.704Z,9.61
2019-05-09T19:30:45.242Z,9.64
2019-05-09T19:33:14.811Z,9.67
2019-05-09T19:35:44.172Z,9.64
2019-05-09T19:38:13.555Z,9.65
2019-05-09T19:40:43.073Z,9.69
2019-05-09T19:43:12.394Z,9.65
2019-05-09T19:45:41.745Z,9.65
2019-05-09T19:48:11.110Z,9.71
2019-05-09T19:50:40.468Z,9.68
2019-05-09T19:53:10.404Z,9.63
2019-05-09T19:55:40.231Z,9.67
2019-05-09T19:58:09.574Z,9.63
2019-05-09T20:00:39.087Z,9.59
2019-05-09T20:03:08.715Z,9.60
2019-05-09T20:05:38.134Z,9.62
2019-05-09T20:08:07.694Z,9.58
2019-05-09T20:10:54.689Z,9.54
2019-05-09T20:13:34.410Z,9.52
2019-05-09T20:16:03.670Z,9.52
2019-05-09T20:18:32.931Z,9.50
2019-05-09T20:21:02.355Z,9.43
2019-05-09T20:23:31.956Z,9.40
2019-05-09T20:26:01.389Z,9.28
2019-05-09T20:28:30.727Z,9.29
2019-05-09T20:31:00.173Z,9.28
2019-05-09T20:33:29.494Z,9.30
2019-05-09T20:35:58.801Z,9.34
2019-05-09T20:38:28.390Z,9.36
2019-05-09T20:40:58.007Z,9.39
2019-05-09T20:43:27.568Z,9.33
2019-05-09T20:45:57.134Z,9.35
2019-05-09T20:48:26.713Z,9.33
2019-05-09T20:50:56.204Z,9.29
2019-05-09T20:53:25.706Z,9.25
2019-05-09T20:55:56.111Z,9.24
2019-05-09T20:58:25.540Z,9.23
2019-05-09T21:00:55.158Z,9.24
2019-05-09T21:03:24.749Z,9.23
2019-05-09T21:05:54.589Z,9.23
2019-05-09T21:08:24.082Z,9.24
2019-05-09T21:10:53.622Z,9.26
2019-05-09T21:13:23.259Z,9.23
2019-05-09T21:15:52.713Z,9.22
2019-05-09T21:18:22.282Z,9.23
2019-05-09T21:20:51.880Z,9.20
2019-05-09T21:23:24.842Z,9.21
2019-05-09T21:25:52.612Z,9.22
2019-05-09T21:28:22.239Z,9.17
2019-05-09T21:30:51.643Z,9.22
2019-05-09T21:33:21.185Z,9.20
2019-05-09T21:35:50.574Z,9.18
2019-05-09T21:38:19.943Z,9.18
2019-05-09T21:40:49.360Z,9.16
2019-05-09T21:43:18.889Z,9.16
2019-05-09T21:45:48.301Z,9.15
2019-05-09T21:48:17.720Z,9.15
2019-05-09T21:50:47.026Z,9.15
2019-05-09T21:53:16.480Z,9.22
2019-05-09T21:55:45.856Z,9.21
2019-05-09T21:58:15.216Z,9.10
2019-05-09T22:00:47.386Z,9.07
2019-05-09T22:03:17.279Z,9.03
2019-05-09T22:05:46.635Z,9.01
2019-05-09T22:08:16.120Z,8.97
2019-05-09T22:10:45.521Z,8.93
2019-05-09T22:13:15.063Z,8.86
2019-05-09T22:15:44.577Z,8.78
2019-05-09T22:18:13.923Z,8.77
2019-05-09T22:20:43.342Z,8.72
2019-05-09T22:23:12.668Z,8.74
2019-05-09T22:25:42.044Z,8.68
2019-05-09T22:28:11.345Z,8.72
2019-05-09T22:30:40.659Z,8.58
2019-05-09T22:33:09.938Z,8.50
2019-05-09T22:35:39.149Z,8.39
2019-05-09T22:38:08.606Z,8.30
2019-05-09T22:40:37.919Z,8.16
2019-05-09T22:43:07.265Z,8.11
2019-05-09T22:45:36.697Z,8.11
2019-05-09T22:48:05.981Z,8.05
2019-05-09T22:50:35.473Z,7.89
2019-05-09T22:53:05.104Z,7.81
2019-05-09T22:55:34.515Z,7.75
2019-05-09T22:58:04.059Z,7.70
2019-05-09T23:00:33.415Z,7.70
2019-05-09T23:03:02.772Z,7.59
2019-05-09T23:05:32.207Z,7.51
2019-05-09T23:08:01.534Z,7.52
2019-05-09T23:10:30.869Z,7.59
2019-05-09T23:13:00.353Z,7.62
2019-05-09T23:15:29.723Z,7.76
2019-05-09T23:17:59.167Z,7.79
2019-05-09T23:20:46.048Z,7.89
2019-05-09T23:23:40.291Z,7.91
2019-05-09T23:26:10.739Z,7.95
2019-05-09T23:28:40.102Z,7.97
2019-05-09T23:31:13.292Z,8.10
2019-05-09T23:33:43.080Z,8.20
2019-05-09T23:36:12.423Z,8.24
2019-05-09T23:38:59.316Z,8.23
2019-05-09T23:41:28.753Z,8.31
2019-05-09T23:43:58.106Z,8.33
2019-05-09T23:46:27.463Z,8.44
2019-05-09T23:48:57.006Z,8.46
2019-05-09T23:51:44.723Z,8.45
2019-05-09T23:54:45.396Z,8.41
2019-05-09T23:57:20.660Z,8.20
